createdAt,value
2022-11-22T00:00:21.597Z,98636.94
2022-11-22T00:02:49.212Z,98638.63
2022-11-22T00:05:18.307Z,98629.81
2022-11-22T00:07:45.838Z,98637.19
2022-11-22T00:10:13.632Z,98626.22
2022-11-22T00:12:42.137Z,98624.00
2022-11-22T00:15:10.040Z,98610.38
2022-11-22T00:17:37.675Z,98612.03
2022-11-22T00:20:05.615Z,98609.09
2022-11-22T00:22:37.345Z,98609.84
2022-11-22T00:25:07.984Z,98606.41
2022-11-22T00:27:35.697Z,98611.88
2022-11-22T00:30:03.739Z,98598.50
2022-11-22T00:32:31.240Z,98592.84
2022-11-22T00:34:58.761Z,98603.06
2022-11-22T00:37:26.296Z,98596.44
2022-11-22T00:39:55.160Z,98594.34
2022-11-22T00:42:22.737Z,98577.84
2022-11-22T00:44:50.202Z,98590.59
2022-11-22T00:47:17.675Z,98588.78
2022-11-22T00:49:45.143Z,98581.19
2022-11-22T00:52:12.653Z,98575.28
2022-11-22T00:54:40.156Z,98581.56
2022-11-22T00:57:09.058Z,98572.34
2022-11-22T00:59:36.577Z,98577.31
2022-11-22T01:02:04.030Z,98582.44
2022-11-22T01:04:31.481Z,98581.56
2022-11-22T01:06:58.972Z,98584.31
2022-11-22T01:09:26.523Z,98572.78
2022-11-22T01:11:53.971Z,98576.19
2022-11-22T01:14:22.872Z,98581.59
2022-11-22T01:16:50.340Z,98565.50
2022-11-22T01:19:17.900Z,98570.09
2022-11-22T01:21:45.364Z,98574.31
2022-11-22T01:24:12.859Z,98572.63
2022-11-22T01:26:40.348Z,98560.69
2022-11-22T01:29:07.842Z,98568.44
2022-11-22T01:31:36.680Z,98569.69
2022-11-22T01:34:05.807Z,98566.84
2022-11-22T01:36:33.267Z,98579.69
2022-11-22T01:39:00.751Z,98558.19
2022-11-22T01:41:28.549Z,98572.34
2022-11-22T01:43:56.066Z,98567.56
2022-11-22T01:46:27.500Z,98568.09
2022-11-22T01:48:56.753Z,98559.34
2022-11-22T01:51:26.436Z,98558.00
2022-11-22T01:53:54.707Z,98559.91
2022-11-22T01:56:22.245Z,98549.03
2022-11-22T01:58:50.302Z,98533.53
2022-11-22T02:01:17.872Z,98543.00
2022-11-22T02:03:45.988Z,98550.94
2022-11-22T02:06:14.905Z,98561.47
2022-11-22T02:08:43.502Z,98552.81
2022-11-22T02:11:11.046Z,98551.56
2022-11-22T02:13:39.093Z,98555.72
2022-11-22T02:16:06.612Z,98551.84
2022-11-22T02:18:35.192Z,98545.47
2022-11-22T02:21:02.691Z,98545.91
2022-11-22T02:23:32.815Z,98547.34
2022-11-22T02:26:01.816Z,98548.25
2022-11-22T02:28:29.912Z,98540.13
2022-11-22T02:30:57.528Z,98528.94
2022-11-22T02:33:25.086Z,98533.31
2022-11-22T02:35:52.626Z,98538.81
2022-11-22T02:38:20.888Z,98561.16
2022-11-22T02:40:49.984Z,98547.75
2022-11-22T02:43:20.208Z,98548.25
2022-11-22T02:45:47.676Z,98534.00
2022-11-22T02:48:15.837Z,98531.25
2022-11-22T02:50:43.536Z,98541.28
2022-11-22T02:53:11.512Z,98542.41
2022-11-22T02:55:39.055Z,98541.34
2022-11-22T02:58:06.854Z,98537.56
2022-11-22T03:00:36.097Z,98540.00
2022-11-22T03:03:03.590Z,98553.75
2022-11-22T03:05:31.132Z,98559.66
2022-11-22T03:07:58.636Z,98569.19
2022-11-22T03:10:26.160Z,98568.84
2022-11-22T03:12:53.677Z,98578.22
2022-11-22T03:15:21.228Z,98570.94
2022-11-22T03:17:50.124Z,98581.03
2022-11-22T03:20:17.793Z,98576.66
2022-11-22T03:22:45.330Z,98580.28
2022-11-22T03:25:12.787Z,98588.34
2022-11-22T03:27:40.337Z,98590.84
2022-11-22T03:30:08.509Z,98592.50
2022-11-22T03:32:36.027Z,98594.06
2022-11-22T03:35:05.096Z,98600.03
2022-11-22T03:37:32.567Z,98601.34
2022-11-22T03:40:00.027Z,98584.41
2022-11-22T03:42:27.574Z,98596.22
2022-11-22T03:44:55.038Z,98589.41
2022-11-22T03:47:22.563Z,98584.72
2022-11-22T03:49:50.047Z,98588.19
2022-11-22T03:52:18.910Z,98570.47
2022-11-22T03:54:46.463Z,98583.47
2022-11-22T03:57:13.989Z,98573.31
2022-11-22T03:59:41.468Z,98592.81
2022-11-22T04:02:09.075Z,98585.16
2022-11-22T04:04:36.721Z,98599.53
2022-11-22T04:07:04.304Z,98592.72
2022-11-22T04:09:33.614Z,98591.91
2022-11-22T04:12:01.427Z,98592.25
2022-11-22T04:14:46.442Z,98590.00
2022-11-22T04:17:14.153Z,98599.00
2022-11-22T04:20:02.659Z,98602.69
2022-11-22T04:22:29.120Z,98607.63
2022-11-22T04:25:16.224Z,98606.41
2022-11-22T04:27:43.713Z,98615.84
2022-11-22T04:30:14.829Z,98604.59
2022-11-22T04:32:45.491Z,98618.63
2022-11-22T04:35:13.660Z,98629.22
2022-11-22T04:37:41.202Z,98615.06
2022-11-22T04:40:11.029Z,98616.81
2022-11-22T04:42:56.767Z,98618.03
2022-11-22T04:45:24.284Z,98624.47
2022-11-22T04:48:00.907Z,98632.59
2022-11-22T04:50:46.545Z,98631.63
2022-11-22T04:53:14.089Z,98620.44
2022-11-22T04:55:43.020Z,98621.84
2022-11-22T04:58:10.484Z,98620.19
2022-11-22T05:00:38.029Z,98618.22
2022-11-22T05:03:05.615Z,98607.69
2022-11-22T05:05:35.525Z,98617.06
2022-11-22T05:08:03.007Z,98615.22
2022-11-22T05:10:50.623Z,98615.94
2022-11-22T05:13:19.520Z,98615.75
2022-11-22T05:15:47.046Z,98615.00
2022-11-22T05:18:14.584Z,98615.94
2022-11-22T05:20:42.081Z,98633.34
2022-11-22T05:23:27.060Z,98620.19
2022-11-22T05:25:54.509Z,98627.34
2022-11-22T05:28:23.383Z,98619.72
2022-11-22T05:30:50.828Z,98621.00
2022-11-22T05:33:18.272Z,98615.88
2022-11-22T05:35:45.730Z,98625.69
2022-11-22T05:38:13.231Z,98625.13
2022-11-22T05:40:40.738Z,98624.59
2022-11-22T05:43:08.187Z,98639.34
2022-11-22T05:45:37.019Z,98621.59
2022-11-22T05:48:04.612Z,98633.78
2022-11-22T05:50:32.079Z,98622.75
2022-11-22T05:53:01.452Z,98619.19
2022-11-22T05:55:29.017Z,98630.63
2022-11-22T05:57:56.531Z,98622.81
2022-11-22T06:00:24.076Z,98620.91
2022-11-22T06:02:52.976Z,98621.84
2022-11-22T06:05:20.465Z,98622.81
2022-11-22T06:07:47.984Z,98628.81
2022-11-22T06:10:15.624Z,98638.34
2022-11-22T06:12:43.141Z,98641.22
2022-11-22T06:15:11.207Z,98642.94
2022-11-22T06:17:38.754Z,98641.00
2022-11-22T06:20:08.565Z,98652.78
2022-11-22T06:22:36.072Z,98647.00
2022-11-22T06:25:03.820Z,98657.78
2022-11-22T06:27:31.296Z,98663.53
2022-11-22T06:29:58.833Z,98664.63
2022-11-22T06:32:26.370Z,98664.31
2022-11-22T06:34:53.876Z,98650.59
2022-11-22T06:37:22.770Z,98658.06
2022-11-22T06:39:50.224Z,98651.44
2022-11-22T06:42:18.183Z,98659.72
2022-11-22T06:44:45.684Z,98645.50
2022-11-22T06:47:13.168Z,98655.00
2022-11-22T06:49:40.702Z,98653.00
2022-11-22T06:52:08.146Z,98659.81
2022-11-22T06:54:37.005Z,98657.47
2022-11-22T06:57:04.600Z,98667.88
2022-11-22T06:59:32.710Z,98668.84
2022-11-22T07:02:06.109Z,98666.44
2022-11-22T07:04:34.301Z,98668.56
2022-11-22T07:07:01.883Z,98677.66
2022-11-22T07:09:29.767Z,98680.97
2022-11-22T07:11:58.982Z,98681.84
2022-11-22T07:14:26.528Z,98682.88
2022-11-22T07:16:54.052Z,98715.84
2022-11-22T07:19:21.501Z,98709.34
2022-11-22T07:21:49.591Z,98698.16
2022-11-22T07:24:17.771Z,98695.44
2022-11-22T07:26:45.253Z,98703.81
2022-11-22T07:29:14.074Z,98708.41
2022-11-22T07:31:41.539Z,98714.88
2022-11-22T07:34:09.065Z,98712.91
2022-11-22T07:36:36.612Z,98709.25
2022-11-22T07:39:04.381Z,98707.25
2022-11-22T07:41:31.892Z,98713.66
2022-11-22T07:43:59.479Z,98704.84
2022-11-22T07:46:31.076Z,98704.41
2022-11-22T07:48:58.626Z,98720.78
2022-11-22T07:51:26.133Z,98713.53
2022-11-22T07:53:53.672Z,98709.06
2022-11-22T07:56:21.126Z,98706.53
2022-11-22T07:58:48.601Z,98707.38
2022-11-22T08:01:16.655Z,98713.09
2022-11-22T08:03:45.831Z,98709.84
2022-11-22T08:06:13.717Z,98722.63
2022-11-22T08:08:41.267Z,98717.91
2022-11-22T08:11:08.831Z,98715.19
2022-11-22T08:13:36.681Z,98715.94
2022-11-22T08:16:05.536Z,98710.09
2022-11-22T08:18:33.405Z,98709.03
2022-11-22T08:21:06.317Z,98723.25
2022-11-22T08:23:33.833Z,98739.34
2022-11-22T08:26:01.375Z,98738.63
2022-11-22T08:28:29.168Z,98739.38
2022-11-22T08:31:03.560Z,98729.97
2022-11-22T08:33:31.028Z,98746.28
2022-11-22T08:35:58.511Z,98742.94
2022-11-22T08:38:27.487Z,98744.09
2022-11-22T08:40:55.076Z,98746.47
2022-11-22T08:43:22.691Z,98756.50
2022-11-22T08:45:50.811Z,98750.03
2022-11-22T08:48:22.242Z,98746.91
2022-11-22T08:50:53.524Z,98767.38
2022-11-22T08:53:21.052Z,98758.84
2022-11-22T08:55:49.972Z,98764.44
2022-11-22T08:58:17.479Z,98764.66
2022-11-22T09:00:45.920Z,98756.09
2022-11-22T09:03:13.492Z,98762.78
2022-11-22T09:08:31.219Z,98763.34
2022-11-22T09:11:03.284Z,98774.16
2022-11-22T09:13:30.932Z,98780.84
2022-11-22T09:16:01.911Z,98769.66
2022-11-22T09:18:29.705Z,98776.44
2022-11-22T09:21:00.421Z,98782.91
2022-11-22T09:23:27.947Z,98791.28
2022-11-22T09:25:58.875Z,98803.81
2022-11-22T09:28:27.891Z,98808.75
2022-11-22T09:30:59.767Z,98810.97
2022-11-22T09:33:27.389Z,98816.50
2022-11-22T09:35:59.788Z,98819.72
2022-11-22T09:38:27.667Z,98823.19
2022-11-22T09:40:55.169Z,98806.84
2022-11-22T09:43:25.372Z,98802.16
2022-11-22T09:45:56.732Z,98820.09
2022-11-22T09:48:28.155Z,98804.44
2022-11-22T09:50:57.123Z,98809.75
2022-11-22T09:53:26.105Z,98808.13
2022-11-22T09:55:54.128Z,98820.69
2022-11-22T09:58:24.896Z,98805.59
2022-11-22T10:00:52.762Z,98822.88
2022-11-22T10:03:23.919Z,98814.56
2022-11-22T10:05:52.010Z,98812.97
2022-11-22T10:08:22.792Z,98807.47
2022-11-22T10:10:51.091Z,98820.03
2022-11-22T10:13:20.205Z,98806.03
2022-11-22T10:15:49.820Z,98825.56
2022-11-22T10:18:19.449Z,98804.28
2022-11-22T10:20:49.045Z,98807.50
2022-11-22T10:23:17.884Z,98825.09
2022-11-22T10:25:46.140Z,98797.16
2022-11-22T10:28:14.808Z,98801.59
2022-11-22T10:30:42.902Z,98812.16
2022-11-22T10:33:11.500Z,98794.44
2022-11-22T10:35:58.538Z,98816.97
2022-11-22T10:38:34.256Z,98798.69
2022-11-22T10:41:03.040Z,98792.25
2022-11-22T10:43:32.660Z,98790.06
2022-11-22T10:46:02.259Z,98796.41
2022-11-22T10:48:31.323Z,98788.97
2022-11-22T10:50:59.798Z,98805.94
2022-11-22T10:53:29.323Z,98796.38
2022-11-22T10:55:58.751Z,98804.66
2022-11-22T10:58:28.837Z,98799.28
2022-11-22T11:00:58.212Z,98790.88
2022-11-22T11:03:27.283Z,98800.34
2022-11-22T11:09:23.336Z,98793.16
2022-11-22T11:11:32.352Z,98789.03
2022-11-22T11:14:00.527Z,98788.72
2022-11-22T11:16:30.276Z,98781.53
2022-11-22T11:18:58.193Z,98765.50
2022-11-22T11:21:27.299Z,98773.34
2022-11-22T11:23:54.757Z,98779.59
2022-11-22T11:26:23.456Z,98780.38
2022-11-22T11:28:52.290Z,98768.50
2022-11-22T11:31:21.702Z,98761.44
2022-11-22T11:33:49.132Z,98777.03
2022-11-22T11:36:18.227Z,98774.19
2022-11-22T11:38:53.679Z,98776.91
2022-11-22T11:41:22.284Z,98772.22
2022-11-22T11:43:50.044Z,98768.31
2022-11-22T11:46:19.771Z,98761.75
2022-11-22T11:48:47.401Z,98751.22
2022-11-22T11:51:16.071Z,98756.44
2022-11-22T11:53:43.663Z,98745.53
2022-11-22T11:56:21.418Z,98734.94
2022-11-22T11:58:52.465Z,98759.38
2022-11-22T12:01:21.480Z,98774.72
2022-11-22T12:03:52.961Z,98758.22
2022-11-22T12:06:20.483Z,98754.78
2022-11-22T12:08:47.942Z,98758.50
2022-11-22T12:11:15.677Z,98757.22
2022-11-22T12:14:12.401Z,98759.97
2022-11-22T12:16:33.100Z,98752.50
2022-11-22T12:19:01.612Z,98756.00
2022-11-22T12:21:30.600Z,98759.00
2022-11-22T12:24:19.401Z,98755.81
2022-11-22T12:26:45.905Z,98770.69
2022-11-22T12:29:13.625Z,98767.16
2022-11-22T12:31:43.892Z,98765.31
2022-11-22T12:34:12.091Z,98762.09
2022-11-22T12:36:41.061Z,98765.75
2022-11-22T12:39:09.943Z,98775.50
2022-11-22T12:41:37.404Z,98763.72
2022-11-22T12:44:05.954Z,98766.00
2022-11-22T12:46:39.664Z,98773.78
2022-11-22T12:49:27.773Z,98768.94
2022-11-22T12:51:56.689Z,98766.09
2022-11-22T12:54:25.267Z,98754.53
2022-11-22T12:56:53.895Z,98759.22
2022-11-22T12:59:22.907Z,98746.88
2022-11-22T13:01:51.385Z,98758.38
2022-11-22T13:04:20.406Z,98751.28
2022-11-22T13:06:51.314Z,98759.56
2022-11-22T13:09:20.271Z,98751.88
2022-11-22T13:11:48.566Z,98755.47
2022-11-22T13:14:20.758Z,98750.22
2022-11-22T13:16:49.207Z,98761.84
2022-11-22T13:19:17.018Z,98766.88
2022-11-22T13:21:46.727Z,98762.34
2022-11-22T13:24:20.842Z,98761.66
2022-11-22T13:26:49.730Z,98764.81
2022-11-22T13:29:19.940Z,98767.16
2022-11-22T13:32:06.950Z,98750.88
2022-11-22T13:34:35.847Z,98751.91
2022-11-22T13:37:09.619Z,98748.28
2022-11-22T13:39:39.405Z,98737.25
2022-11-22T13:42:06.969Z,98749.06
2022-11-22T13:44:39.607Z,98737.19
2022-11-22T13:47:22.032Z,98743.22
2022-11-22T13:49:49.950Z,98735.47
2022-11-22T13:52:30.946Z,98749.31
2022-11-22T13:55:01.138Z,98756.22
2022-11-22T13:57:29.967Z,98757.31
2022-11-22T14:00:15.626Z,98749.50
2022-11-22T14:02:43.768Z,98740.81
2022-11-22T14:05:18.289Z,98734.13
2022-11-22T14:07:45.865Z,98737.28
2022-11-22T14:10:28.884Z,98749.66
2022-11-22T14:13:08.634Z,98740.41
2022-11-22T14:15:42.779Z,98747.16
2022-11-22T14:18:22.757Z,98737.03
2022-11-22T14:20:55.497Z,98744.72
2022-11-22T14:23:25.082Z,98745.78
2022-11-22T14:25:59.593Z,98746.63
2022-11-22T14:28:35.672Z,98745.28
2022-11-22T14:31:04.895Z,98741.16
2022-11-22T14:33:32.396Z,98736.00
2022-11-22T14:36:15.958Z,98743.38
2022-11-22T14:38:43.575Z,98747.44
2022-11-22T14:41:29.305Z,98749.06
2022-11-22T14:43:59.280Z,98734.16
2022-11-22T14:46:51.659Z,98733.72
2022-11-22T14:49:15.208Z,98731.47
2022-11-22T14:51:42.769Z,98734.06
2022-11-22T14:54:15.187Z,98732.31
2022-11-22T14:56:43.164Z,98726.22
2022-11-22T14:59:16.890Z,98737.69
2022-11-22T15:01:51.841Z,98730.03
2022-11-22T15:09:10.286Z,98739.06
2022-11-22T15:09:15.086Z,98735.78
2022-11-22T15:10:25.771Z,98742.06
2022-11-22T15:13:03.366Z,98739.25
2022-11-22T15:58:18.220Z,98723.59
2022-11-22T16:00:46.002Z,98729.56
2022-11-22T16:03:19.897Z,98733.88
2022-11-22T16:06:09.701Z,98726.44
2022-11-22T16:08:36.285Z,98735.50
2022-11-22T16:11:04.216Z,98740.06
2022-11-22T16:13:34.257Z,98748.19
2022-11-22T16:16:05.615Z,98733.38
2022-11-22T16:18:33.168Z,98732.31
2022-11-22T16:21:02.743Z,98739.13
2022-11-22T16:23:30.332Z,98741.50
2022-11-22T16:25:58.981Z,98732.66
2022-11-22T16:28:27.888Z,98743.66
2022-11-22T16:30:56.214Z,98736.50
2022-11-22T16:33:23.895Z,98739.81
2022-11-22T16:35:55.253Z,98732.88
2022-11-22T16:38:24.410Z,98747.69
2022-11-22T16:40:51.924Z,98745.31
2022-11-22T16:43:19.795Z,98745.09
2022-11-22T16:45:47.332Z,98753.38
2022-11-22T16:48:30.651Z,98747.66
2022-11-22T16:51:00.052Z,98740.56
2022-11-22T16:53:29.699Z,98734.09
2022-11-22T16:55:57.151Z,98746.47
2022-11-22T16:58:24.663Z,98736.72
2022-11-22T17:00:53.291Z,98736.38
2022-11-22T17:03:21.411Z,98736.94
2022-11-22T17:05:49.081Z,98748.16
2022-11-22T17:08:17.124Z,98750.06
2022-11-22T17:10:47.129Z,98744.81
2022-11-22T17:13:18.368Z,98759.03
2022-11-22T17:15:45.928Z,98745.56
2022-11-22T17:18:13.371Z,98740.75
2022-11-22T17:20:40.888Z,98745.69
2022-11-22T17:23:10.583Z,98752.50
2022-11-22T17:25:38.072Z,98756.31
2022-11-22T17:28:06.927Z,98763.44
2022-11-22T17:30:34.391Z,98768.56
2022-11-22T17:33:01.836Z,98752.50
2022-11-22T17:35:34.497Z,98754.16
2022-11-22T17:38:04.285Z,98770.13
2022-11-22T17:40:31.813Z,98764.53
2022-11-22T17:43:00.306Z,98772.75
2022-11-22T17:45:29.140Z,98754.28
2022-11-22T17:47:56.725Z,98761.78
2022-11-22T17:50:24.259Z,98767.84
2022-11-22T17:52:52.681Z,98782.69
2022-11-22T17:55:20.305Z,98777.91
2022-11-22T17:57:51.727Z,98783.63
2022-11-22T18:00:28.484Z,98785.88
2022-11-22T18:03:02.546Z,98771.47
2022-11-22T18:05:34.888Z,98783.53
2022-11-22T18:08:02.510Z,98778.28
2022-11-22T18:10:30.005Z,98785.53
2022-11-22T18:13:20.227Z,98784.13
2022-11-22T18:15:45.159Z,98779.94
2022-11-22T18:18:33.267Z,98781.63
2022-11-22T18:21:01.469Z,98788.78
2022-11-22T18:23:32.547Z,98785.66
2022-11-22T18:26:17.050Z,98784.44
2022-11-22T18:29:08.640Z,98789.50
2022-11-22T18:31:51.063Z,98790.44
2022-11-22T18:34:20.923Z,98796.19
2022-11-22T18:37:00.263Z,98796.97
2022-11-22T18:39:29.632Z,98790.41
2022-11-22T18:41:57.363Z,98794.09
2022-11-22T18:44:24.890Z,98789.69
2022-11-22T18:46:52.363Z,98790.78
2022-11-22T18:49:21.298Z,98783.75
2022-11-22T18:51:48.814Z,98786.72
2022-11-22T18:54:16.562Z,98790.19
2022-11-22T18:56:44.098Z,98789.97
2022-11-22T18:59:12.519Z,98806.53
2022-11-22T19:01:40.566Z,98796.19
2022-11-22T19:04:08.195Z,98802.81
2022-11-22T19:06:37.088Z,98800.81
2022-11-22T19:09:04.709Z,98804.50
2022-11-22T19:11:32.723Z,98803.06
2022-11-22T19:14:00.448Z,98807.84
2022-11-22T19:16:30.049Z,98806.19
2022-11-22T19:18:57.669Z,98803.94
2022-11-22T19:21:27.915Z,98810.72
2022-11-22T19:23:57.029Z,98810.03
2022-11-22T19:26:25.139Z,98810.75
2022-11-22T19:28:55.079Z,98814.31
2022-11-22T19:31:23.326Z,98796.25
2022-11-22T19:33:50.943Z,98808.94
2022-11-22T19:36:18.938Z,98811.81
2022-11-22T19:38:46.607Z,98803.34
2022-11-22T19:41:16.844Z,98810.28
2022-11-22T19:43:44.396Z,98803.59
2022-11-22T19:46:11.867Z,98811.34
2022-11-22T19:48:45.367Z,98808.59
2022-11-22T19:51:15.401Z,98803.22
2022-11-22T19:53:43.097Z,98819.09
2022-11-22T19:56:13.549Z,98815.03
2022-11-22T19:58:42.528Z,98809.78
2022-11-22T20:01:10.685Z,98824.59
2022-11-22T20:03:38.963Z,98815.84
2022-11-22T20:06:07.314Z,98815.03
2022-11-22T20:08:34.876Z,98831.28
2022-11-22T20:11:03.252Z,98820.66
2022-11-22T20:13:31.248Z,98825.78
2022-11-22T20:16:00.153Z,98827.47
2022-11-22T20:18:27.648Z,98829.25
2022-11-22T20:21:00.336Z,98837.25
2022-11-22T20:23:27.910Z,98827.47
2022-11-22T20:25:55.441Z,98830.56
2022-11-22T20:28:22.884Z,98835.22
2022-11-22T20:30:50.418Z,98822.69
2022-11-22T20:33:19.311Z,98834.41
2022-11-22T20:35:47.384Z,98829.63
2022-11-22T20:38:15.609Z,98817.75
2022-11-22T20:40:43.164Z,98826.75
2022-11-22T20:43:10.702Z,98831.78
2022-11-22T20:45:38.385Z,98833.09
2022-11-22T20:48:06.148Z,98840.50
2022-11-22T20:50:35.002Z,98831.28
2022-11-22T20:53:02.586Z,98838.22
2022-11-22T20:55:30.117Z,98830.09
2022-11-22T20:57:57.809Z,98834.50
2022-11-22T21:00:25.315Z,98848.72
2022-11-22T21:02:52.851Z,98848.59
2022-11-22T21:05:20.366Z,98847.50
2022-11-22T21:07:49.338Z,98837.38
2022-11-22T21:10:16.886Z,98839.66
2022-11-22T21:12:44.380Z,98838.22
2022-11-22T21:15:11.973Z,98840.72
2022-11-22T21:17:50.482Z,98841.31
2022-11-22T21:20:26.909Z,98838.56
2022-11-22T21:22:55.787Z,98844.31
2022-11-22T21:25:23.572Z,98832.00
2022-11-22T21:27:51.284Z,98848.13
2022-11-22T21:30:19.011Z,98844.41
2022-11-22T21:32:46.484Z,98845.97
2022-11-22T21:35:13.940Z,98845.25
2022-11-22T21:37:41.974Z,98853.13
2022-11-22T21:40:11.695Z,98847.41
2022-11-22T21:42:40.715Z,98856.03
2022-11-22T21:45:08.946Z,98852.78
2022-11-22T21:47:36.443Z,98853.38
2022-11-22T21:50:07.277Z,98856.38
2022-11-22T21:52:38.912Z,98860.56
2022-11-22T21:55:07.515Z,98866.91
2022-11-22T21:57:36.391Z,98857.19
2022-11-22T22:00:03.919Z,98871.41
2022-11-22T22:02:32.661Z,98871.28
2022-11-22T22:05:00.204Z,98861.88
2022-11-22T22:07:51.354Z,98863.28
2022-11-22T22:10:15.620Z,98870.69
2022-11-22T22:12:44.525Z,98866.06
2022-11-22T22:15:12.398Z,98868.78
2022-11-22T22:17:39.911Z,98862.47
2022-11-22T22:20:07.843Z,98869.41
2022-11-22T22:22:36.163Z,98874.19
2022-11-22T22:25:03.848Z,98875.00
2022-11-22T22:27:33.090Z,98874.41
2022-11-22T22:30:01.988Z,98869.50
2022-11-22T22:32:29.607Z,98873.69
2022-11-22T22:34:57.125Z,98871.03
2022-11-22T22:37:24.649Z,98878.56
2022-11-22T22:39:52.178Z,98879.19
2022-11-22T22:42:19.676Z,98876.19
2022-11-22T22:44:47.399Z,98869.00
2022-11-22T22:47:16.281Z,98876.03
2022-11-22T22:49:43.723Z,98874.28
2022-11-22T22:52:11.424Z,98871.69
2022-11-22T22:54:38.928Z,98879.31
2022-11-22T22:57:06.452Z,98877.88
2022-11-22T22:59:34.073Z,98878.59
2022-11-22T23:02:01.969Z,98868.66
2022-11-22T23:04:31.016Z,98870.47
2022-11-22T23:06:58.524Z,98881.56
2022-11-22T23:09:26.007Z,98880.13
2022-11-22T23:12:11.531Z,98874.75
2022-11-22T23:14:40.073Z,98881.00
2022-11-22T23:17:08.121Z,98889.47
2022-11-22T23:19:36.984Z,98881.34
2022-11-22T23:22:04.808Z,98896.63
2022-11-22T23:24:32.756Z,98892.31
2022-11-22T23:27:00.241Z,98885.03
2022-11-22T23:29:27.754Z,98894.47
2022-11-22T23:31:55.243Z,98889.13
2022-11-22T23:34:22.800Z,98878.50
2022-11-22T23:36:51.668Z,98895.06
2022-11-22T23:39:19.251Z,98891.47
2022-11-22T23:41:46.715Z,98889.31
2022-11-22T23:44:14.200Z,98885.84
2022-11-22T23:46:41.638Z,98895.53
2022-11-22T23:49:09.143Z,98886.00
2022-11-22T23:51:36.712Z,98889.47
2022-11-22T23:54:06.198Z,98890.06
2022-11-22T23:56:34.472Z,98890.28
2022-11-22T23:59:02.043Z,98885.88
